createdAt,value
2022-10-19T00:01:03.059Z,12.12
2022-10-19T00:03:29.987Z,12.10
2022-10-19T00:05:56.725Z,12.04
2022-10-19T00:08:23.468Z,12.08
2022-10-19T00:10:50.398Z,12.05
2022-10-19T00:13:17.059Z,11.93
2022-10-19T00:15:45.123Z,11.92
2022-10-19T00:18:12.073Z,11.84
2022-10-19T00:20:38.807Z,11.85
2022-10-19T00:23:05.455Z,11.93
2022-10-19T00:25:32.351Z,11.96
2022-10-19T00:27:59.215Z,11.98
2022-10-19T00:30:25.965Z,11.99
2022-10-19T00:32:52.839Z,12.03
2022-10-19T00:35:19.598Z,11.83
2022-10-19T00:37:46.532Z,11.66
2022-10-19T00:40:13.708Z,11.57
2022-10-19T00:42:40.591Z,11.72
2022-10-19T00:45:14.421Z,11.61
2022-10-19T00:47:43.266Z,11.70
2022-10-19T00:50:13.732Z,11.75
2022-10-19T00:52:40.838Z,11.82
2022-10-19T00:55:08.860Z,11.74
2022-10-19T00:57:36.033Z,11.77
2022-10-19T01:00:07.049Z,11.86
2022-10-19T01:02:34.578Z,11.86
2022-10-19T01:05:02.339Z,11.94
2022-10-19T01:07:29.292Z,11.96
2022-10-19T01:09:56.680Z,11.98
2022-10-19T01:12:35.403Z,12.00
2022-10-19T01:15:16.589Z,12.00
2022-10-19T01:17:53.969Z,11.97
2022-10-19T01:20:39.453Z,12.00
2022-10-19T01:23:15.429Z,12.03
2022-10-19T01:26:00.750Z,12.11
2022-10-19T01:28:36.726Z,12.07
2022-10-19T01:31:12.777Z,12.12
2022-10-19T01:34:05.856Z,12.25
2022-10-19T01:37:02.149Z,12.20
2022-10-19T01:39:45.337Z,12.34
2022-10-19T01:42:30.465Z,12.40
2022-10-19T01:45:25.390Z,12.29
2022-10-19T01:48:23.451Z,12.35
2022-10-19T01:51:00.588Z,12.32
2022-10-19T01:53:31.449Z,12.34
2022-10-19T01:56:00.991Z,12.40
2022-10-19T01:58:32.014Z,12.27
2022-10-19T02:01:02.616Z,12.35
2022-10-19T02:03:29.708Z,12.41
2022-10-19T02:05:58.014Z,12.45
2022-10-19T02:08:31.823Z,12.37
2022-10-19T02:10:59.838Z,12.43
2022-10-19T02:13:28.307Z,12.49
2022-10-19T02:15:58.147Z,12.47
2022-10-19T02:18:31.858Z,12.51
2022-10-19T02:21:01.763Z,12.38
2022-10-19T02:23:28.605Z,12.47
2022-10-19T02:25:56.649Z,12.41
2022-10-19T02:30:52.691Z,12.57
2022-10-19T02:33:19.594Z,12.49
2022-10-19T02:35:46.672Z,12.47
2022-10-19T02:38:16.989Z,12.51
2022-10-19T02:40:48.920Z,12.58
2022-10-19T02:43:19.219Z,12.58
2022-10-19T02:46:05.701Z,12.56
2022-10-19T02:48:34.060Z,12.50
2022-10-19T02:51:00.788Z,12.28
2022-10-19T02:53:28.282Z,12.41
2022-10-19T02:55:54.960Z,12.42
2022-10-19T02:58:21.659Z,12.26
2022-10-19T03:01:07.154Z,12.36
2022-10-19T03:03:52.386Z,12.41
2022-10-19T03:06:19.472Z,12.28
2022-10-19T03:08:46.478Z,12.36
2022-10-19T03:11:16.266Z,12.56
2022-10-19T03:13:48.945Z,12.45
2022-10-19T03:16:19.083Z,12.42
2022-10-19T03:18:49.633Z,12.34
2022-10-19T03:21:19.900Z,12.37
2022-10-19T03:23:46.743Z,12.45
2022-10-19T03:26:17.420Z,12.46
2022-10-19T03:28:47.350Z,12.37
2022-10-19T03:31:17.298Z,12.35
2022-10-19T03:33:47.089Z,12.37
2022-10-19T03:36:21.687Z,12.32
2022-10-19T03:38:52.311Z,12.40
2022-10-19T03:41:20.623Z,12.28
2022-10-19T03:43:47.458Z,12.30
2022-10-19T03:46:14.857Z,12.33
2022-10-19T03:48:41.912Z,12.23
2022-10-19T03:51:17.668Z,12.32
2022-10-19T03:53:45.156Z,12.27
2022-10-19T03:56:17.061Z,12.10
2022-10-19T03:58:45.485Z,12.13
2022-10-19T04:01:39.978Z,12.28
2022-10-19T04:04:15.698Z,12.23
2022-10-19T04:06:44.917Z,12.15
2022-10-19T04:09:13.766Z,12.18
2022-10-19T04:11:40.576Z,12.06
2022-10-19T04:16:34.930Z,11.97
2022-10-19T04:19:01.765Z,12.03
2022-10-19T04:21:34.623Z,12.05
2022-10-19T04:24:02.592Z,11.99
2022-10-19T04:26:29.734Z,12.00
2022-10-19T04:29:01.341Z,11.98
2022-10-19T04:31:28.460Z,11.98
2022-10-19T04:33:56.375Z,11.98
2022-10-19T04:36:24.060Z,11.99
2022-10-19T04:38:51.404Z,11.86
2022-10-19T04:41:20.204Z,11.83
2022-10-19T04:43:48.138Z,11.85
2022-10-19T04:46:17.920Z,11.83
2022-10-19T04:48:46.577Z,11.77
2022-10-19T04:51:14.215Z,11.77
2022-10-19T04:53:42.500Z,11.79
2022-10-19T04:56:13.558Z,11.82
2022-10-19T04:58:40.374Z,11.72
2022-10-19T05:01:13.563Z,11.68
2022-10-19T05:03:41.014Z,11.62
2022-10-19T05:06:09.029Z,11.56
2022-10-19T05:08:36.752Z,11.54
2022-10-19T05:11:17.554Z,11.36
2022-10-19T05:13:44.786Z,11.37
2022-10-19T05:16:17.959Z,11.27
2022-10-19T05:18:53.275Z,11.24
2022-10-19T05:21:21.756Z,11.30
2022-10-19T05:23:52.396Z,11.23
2022-10-19T05:26:22.472Z,11.52
2022-10-19T05:28:57.159Z,11.38
2022-10-19T05:31:26.175Z,11.26
2022-10-19T05:33:52.882Z,11.20
2022-10-19T05:36:21.197Z,11.10
2022-10-19T05:38:50.128Z,11.05
2022-10-19T05:41:17.724Z,11.07
2022-10-19T05:43:45.550Z,10.97
2022-10-19T05:46:17.452Z,10.88
2022-10-19T05:48:44.940Z,10.75
2022-10-19T05:51:14.402Z,10.84
2022-10-19T05:53:42.239Z,10.93
2022-10-19T05:56:12.913Z,10.98
2022-10-19T05:58:39.921Z,11.05
2022-10-19T06:01:06.719Z,11.11
2022-10-19T06:03:33.404Z,11.16
2022-10-19T06:06:06.112Z,11.19
2022-10-19T06:08:33.361Z,11.29
2022-10-19T06:11:07.644Z,11.29
2022-10-19T06:13:35.216Z,11.22
2022-10-19T06:16:02.104Z,11.32
2022-10-19T06:18:29.572Z,11.41
2022-10-19T06:20:56.333Z,11.42
2022-10-19T06:23:23.093Z,11.38
2022-10-19T06:25:49.934Z,11.43
2022-10-19T06:28:16.706Z,11.45
2022-10-19T06:30:43.684Z,11.48
2022-10-19T06:33:10.794Z,11.63
2022-10-19T06:35:38.344Z,11.71
2022-10-19T06:38:05.067Z,11.72
2022-10-19T06:40:31.747Z,11.64
2022-10-19T06:42:59.806Z,11.43
2022-10-19T06:45:26.530Z,11.45
2022-10-19T06:47:53.323Z,11.58
2022-10-19T06:50:20.666Z,11.62
2022-10-19T06:52:47.866Z,11.60
2022-10-19T06:55:15.011Z,11.58
2022-10-19T06:57:41.696Z,11.67
2022-10-19T07:00:09.075Z,11.72
2022-10-19T07:02:35.773Z,11.81
2022-10-19T07:05:06.936Z,11.88
2022-10-19T07:07:34.993Z,11.87
2022-10-19T07:10:03.108Z,11.87
2022-10-19T07:12:29.766Z,11.75
2022-10-19T07:14:56.556Z,11.81
2022-10-19T07:17:23.223Z,11.82
2022-10-19T07:19:49.962Z,11.86
2022-10-19T07:22:21.173Z,11.87
2022-10-19T07:24:52.209Z,11.98
2022-10-19T07:27:19.065Z,11.98
2022-10-19T07:29:45.764Z,11.90
2022-10-19T07:32:12.671Z,11.86
2022-10-19T07:34:39.314Z,11.86
2022-10-19T07:37:06.110Z,11.83
2022-10-19T07:39:32.856Z,11.85
2022-10-19T07:41:59.524Z,11.85
2022-10-19T07:44:26.396Z,11.67
2022-10-19T07:46:53.210Z,11.71
2022-10-19T07:49:20.725Z,11.55
2022-10-19T07:51:47.621Z,11.87
2022-10-19T07:54:14.364Z,11.85
2022-10-19T07:56:41.190Z,11.98
2022-10-19T07:59:07.987Z,12.20
2022-10-19T08:01:40.947Z,12.52
2022-10-19T08:06:54.620Z,12.57
2022-10-19T08:09:51.086Z,12.29
2022-10-19T08:12:12.354Z,12.37
2022-10-19T08:14:41.658Z,12.21
2022-10-19T08:17:11.787Z,12.04
2022-10-19T08:19:43.688Z,12.00
2022-10-19T08:22:11.133Z,12.32
2022-10-19T08:24:37.784Z,12.23
2022-10-19T08:27:04.730Z,12.47
2022-10-19T08:29:31.879Z,12.90
2022-10-19T08:31:59.210Z,12.92
2022-10-19T08:34:26.217Z,13.21
2022-10-19T08:36:52.956Z,13.10
2022-10-19T08:39:19.635Z,13.12
2022-10-19T08:42:21.396Z,14.30
2022-10-19T08:44:56.271Z,14.01
2022-10-19T08:47:23.609Z,14.96
2022-10-19T08:49:51.256Z,15.16
2022-10-19T08:52:34.463Z,15.75
2022-10-19T08:55:15.244Z,15.65
2022-10-19T08:58:06.736Z,14.78
2022-10-19T09:00:46.101Z,14.51
2022-10-19T09:03:55.891Z,14.17
2022-10-19T09:06:40.590Z,15.17
2022-10-19T09:09:12.921Z,15.34
2022-10-19T09:11:44.370Z,16.32
2022-10-19T09:14:41.271Z,16.99
2022-10-19T09:17:14.610Z,17.38
2022-10-19T09:19:41.623Z,17.88
2022-10-19T09:22:18.967Z,18.12
2022-10-19T09:24:54.357Z,18.07
2022-10-19T09:27:24.662Z,18.63
2022-10-19T09:29:56.687Z,17.97
2022-10-19T09:32:36.981Z,17.74
2022-10-19T09:35:15.289Z,17.53
2022-10-19T09:37:48.622Z,16.88
2022-10-19T09:40:26.920Z,16.51
2022-10-19T09:42:57.272Z,16.26
2022-10-19T09:45:53.926Z,16.43
2022-10-19T09:48:30.932Z,16.42
2022-10-19T09:51:12.240Z,16.28
2022-10-19T09:53:53.970Z,15.61
2022-10-19T09:56:26.451Z,15.07
2022-10-19T09:58:58.503Z,15.25
2022-10-19T10:01:40.196Z,15.26
2022-10-19T10:04:14.666Z,15.44
2022-10-19T10:06:43.472Z,15.42
2022-10-19T10:09:21.955Z,15.29
2022-10-19T10:11:50.664Z,15.37
2022-10-19T10:14:26.071Z,14.80
2022-10-19T10:17:18.197Z,14.66
2022-10-19T10:20:00.265Z,14.53
2022-10-19T10:22:29.747Z,14.88
2022-10-19T10:24:57.034Z,15.12
2022-10-19T10:27:33.096Z,15.13
2022-10-19T10:30:06.296Z,15.91
2022-10-19T10:32:37.715Z,15.68
2022-10-19T10:35:06.276Z,15.65
2022-10-19T10:37:40.655Z,15.71
2022-10-19T10:40:28.544Z,15.93
2022-10-19T10:43:01.731Z,15.75
2022-10-19T10:45:41.178Z,15.92
2022-10-19T10:48:26.761Z,16.26
2022-10-19T10:50:53.723Z,16.04
2022-10-19T10:53:37.554Z,15.68
2022-10-19T10:56:05.320Z,14.89
2022-10-19T10:58:50.571Z,14.60
2022-10-19T11:01:23.366Z,14.52
2022-10-19T11:03:55.970Z,16.10
2022-10-19T11:06:25.349Z,16.44
2022-10-19T11:09:11.558Z,17.41
2022-10-19T11:11:43.216Z,18.46
2022-10-19T11:14:31.464Z,18.80
2022-10-19T11:17:03.515Z,17.39
2022-10-19T11:19:43.293Z,16.66
2022-10-19T11:22:33.398Z,16.22
2022-10-19T11:25:24.824Z,15.67
2022-10-19T11:28:10.924Z,15.33
2022-10-19T11:31:02.171Z,15.61
2022-10-19T11:33:44.066Z,15.22
2022-10-19T11:36:48.178Z,15.85
2022-10-19T11:39:40.997Z,16.18
2022-10-19T11:42:39.896Z,16.07
2022-10-19T11:45:15.562Z,15.89
2022-10-19T11:48:22.476Z,16.40
2022-10-19T11:51:04.094Z,16.40
2022-10-19T11:54:14.619Z,16.58
2022-10-19T11:57:03.241Z,15.98
2022-10-19T11:59:40.613Z,15.44
2022-10-19T12:02:19.609Z,15.37
2022-10-19T12:04:49.844Z,15.36
2022-10-19T12:07:44.643Z,14.79
2022-10-19T12:10:30.265Z,14.73
2022-10-19T12:13:01.574Z,14.82
2022-10-19T12:15:35.348Z,14.69
2022-10-19T12:18:28.455Z,14.66
2022-10-19T12:20:59.088Z,14.80
2022-10-19T12:23:39.177Z,14.57
2022-10-19T12:26:11.517Z,14.67
2022-10-19T12:28:43.389Z,14.39
2022-10-19T12:31:11.233Z,14.42
2022-10-19T12:34:00.386Z,14.14
2022-10-19T12:36:39.286Z,14.18
2022-10-19T12:39:46.304Z,14.06
2022-10-19T12:42:22.126Z,14.05
2022-10-19T12:45:00.981Z,14.36
2022-10-19T12:47:27.690Z,13.98
2022-10-19T12:49:55.660Z,14.07
2022-10-19T12:52:45.849Z,14.13
2022-10-19T12:55:15.632Z,13.86
2022-10-19T12:57:58.076Z,13.80
2022-10-19T13:00:28.777Z,14.13
2022-10-19T13:03:04.419Z,14.09
2022-10-19T13:05:32.784Z,14.17
2022-10-19T13:08:02.462Z,14.18
2022-10-19T13:10:32.374Z,13.75
2022-10-19T13:12:59.522Z,14.10
2022-10-19T13:15:35.382Z,14.21
2022-10-19T13:18:04.611Z,14.14
2022-10-19T13:20:31.687Z,14.07
2022-10-19T13:23:03.417Z,13.90
2022-10-19T13:25:32.081Z,13.85
2022-10-19T13:28:09.054Z,14.20
2022-10-19T13:30:35.860Z,14.38
2022-10-19T13:33:33.435Z,14.18
2022-10-19T13:36:00.284Z,14.29
2022-10-19T13:41:15.840Z,14.25
2022-10-19T13:44:12.443Z,14.26
2022-10-19T13:47:05.427Z,14.04
2022-10-19T13:49:32.929Z,14.13
2022-10-19T13:52:37.767Z,13.85
2022-10-19T13:55:47.247Z,14.17
2022-10-19T13:58:35.488Z,13.97
2022-10-19T14:01:08.239Z,13.77
2022-10-19T14:04:12.373Z,13.58
2022-10-19T14:07:03.745Z,13.60
2022-10-19T14:09:42.755Z,13.55
2022-10-19T14:12:18.748Z,13.49
2022-10-19T14:14:45.574Z,13.39
2022-10-19T14:17:28.529Z,13.21
2022-10-19T14:20:00.288Z,13.19
2022-10-19T14:22:33.390Z,13.40
2022-10-19T14:25:03.935Z,13.68
2022-10-19T14:27:31.539Z,13.51
2022-10-19T14:29:58.705Z,13.41
2022-10-19T14:32:27.834Z,13.16
2022-10-19T14:35:00.139Z,13.05
2022-10-19T14:37:27.505Z,13.03
2022-10-19T14:40:30.932Z,12.64
2022-10-19T14:43:00.236Z,12.67
2022-10-19T14:45:32.304Z,12.63
2022-10-19T14:48:16.931Z,12.53
2022-10-19T14:50:57.345Z,12.27
2022-10-19T14:53:41.064Z,12.23
2022-10-19T14:56:33.464Z,12.17
2022-10-19T14:59:02.667Z,12.18
2022-10-19T15:01:31.248Z,11.99
2022-10-19T15:03:59.142Z,11.84
2022-10-19T15:06:29.889Z,11.90
2022-10-19T15:09:00.930Z,11.83
2022-10-19T15:11:31.393Z,11.87
2022-10-19T15:14:02.139Z,11.73
2022-10-19T15:16:40.551Z,11.63
2022-10-19T15:19:23.886Z,11.52
2022-10-19T15:22:10.585Z,11.42
2022-10-19T15:24:38.520Z,11.46
2022-10-19T15:27:20.817Z,11.33
2022-10-19T15:30:02.573Z,11.34
2022-10-19T15:32:36.786Z,11.29
2022-10-19T15:35:39.888Z,11.17
2022-10-19T15:38:10.128Z,11.02
2022-10-19T15:40:40.765Z,11.07
2022-10-19T15:43:35.323Z,10.98
2022-10-19T15:46:08.811Z,10.83
2022-10-19T15:48:41.583Z,10.79
2022-10-19T15:51:23.608Z,10.69
2022-10-19T15:54:04.446Z,10.68
2022-10-19T15:56:33.877Z,10.63
2022-10-19T15:59:02.740Z,10.51
2022-10-19T16:01:32.454Z,10.46
2022-10-19T16:03:59.765Z,10.39
2022-10-19T16:06:29.259Z,10.38
2022-10-19T16:08:56.530Z,10.24
2022-10-19T16:11:23.544Z,10.11
2022-10-19T16:13:51.598Z,9.98
2022-10-19T16:16:23.315Z,9.83
2022-10-19T16:18:50.779Z,9.79
2022-10-19T16:21:19.655Z,9.69
2022-10-19T16:23:46.822Z,9.67
2022-10-19T16:26:17.458Z,9.61
2022-10-19T16:28:45.167Z,9.57
2022-10-19T16:31:11.949Z,9.55
2022-10-19T16:33:38.680Z,9.42
2022-10-19T16:36:06.786Z,9.24
2022-10-19T16:38:34.675Z,9.30
2022-10-19T16:41:02.938Z,9.16
2022-10-19T16:43:30.102Z,8.95
2022-10-19T16:45:57.645Z,8.96
2022-10-19T16:48:25.491Z,8.91
2022-10-19T16:51:18.559Z,8.90
2022-10-19T16:53:45.431Z,8.88
2022-10-19T16:56:13.613Z,8.79
2022-10-19T16:58:41.203Z,8.72
2022-10-19T17:01:08.615Z,8.64
2022-10-19T17:03:35.519Z,8.74
2022-10-19T17:06:03.823Z,8.72
2022-10-19T17:08:37.360Z,8.59
2022-10-19T17:11:28.620Z,8.65
2022-10-19T17:13:58.785Z,8.59
2022-10-19T17:16:27.792Z,8.49
2022-10-19T17:18:57.037Z,8.41
2022-10-19T17:21:29.190Z,8.34
2022-10-19T17:24:00.630Z,8.34
2022-10-19T17:26:33.623Z,8.30
2022-10-19T17:29:00.924Z,8.31
2022-10-19T17:31:28.704Z,8.28
2022-10-19T17:33:56.183Z,8.19
2022-10-19T17:36:27.259Z,8.17
2022-10-19T17:38:55.826Z,8.07
2022-10-19T17:41:23.030Z,7.98
2022-10-19T17:43:53.828Z,7.97
2022-10-19T17:46:23.328Z,7.84
2022-10-19T17:48:50.550Z,8.00
2022-10-19T17:51:27.148Z,7.79
2022-10-19T17:53:59.309Z,7.73
2022-10-19T17:56:27.140Z,7.61
2022-10-19T17:58:54.200Z,7.61
2022-10-19T18:01:22.411Z,7.60
2022-10-19T18:03:50.481Z,7.67
2022-10-19T18:06:25.964Z,7.65
2022-10-19T18:08:55.080Z,7.50
2022-10-19T18:11:21.883Z,7.37
2022-10-19T18:13:49.769Z,7.31
2022-10-19T18:16:26.460Z,7.31
2022-10-19T18:18:55.739Z,7.20
2022-10-19T18:21:28.544Z,7.20
2022-10-19T18:23:56.991Z,7.03
2022-10-19T18:26:25.847Z,6.96
2022-10-19T18:28:54.249Z,7.00
2022-10-19T18:31:31.565Z,6.96
2022-10-19T18:34:03.782Z,6.91
2022-10-19T18:36:31.625Z,6.81
2022-10-19T18:39:00.795Z,6.70
2022-10-19T18:41:28.199Z,6.66
2022-10-19T18:43:58.520Z,6.51
2022-10-19T18:46:26.587Z,6.52
2022-10-19T18:48:53.818Z,6.49
2022-10-19T18:51:22.293Z,6.34
2022-10-19T18:53:49.584Z,6.35
2022-10-19T18:56:19.411Z,6.31
2022-10-19T18:58:46.601Z,6.28
2022-10-19T19:01:13.388Z,6.23
2022-10-19T19:03:43.269Z,6.26
2022-10-19T19:06:18.339Z,6.22
2022-10-19T19:08:45.508Z,6.19
2022-10-19T19:11:15.628Z,5.99
2022-10-19T19:13:48.299Z,6.00
2022-10-19T19:16:15.239Z,5.95
2022-10-19T19:18:42.014Z,5.87
2022-10-19T19:21:25.822Z,5.81
2022-10-19T19:23:54.167Z,5.81
2022-10-19T19:26:23.198Z,5.71
2022-10-19T19:28:51.750Z,5.72
2022-10-19T19:31:19.521Z,5.69
2022-10-19T19:33:47.374Z,5.60
2022-10-19T19:36:16.907Z,5.55
2022-10-19T19:38:44.240Z,5.57
2022-10-19T19:41:14.105Z,5.54
2022-10-19T19:43:42.559Z,5.53
2022-10-19T19:46:16.494Z,5.49
2022-10-19T19:48:45.244Z,5.42
2022-10-19T19:51:14.802Z,5.42
2022-10-19T19:53:42.028Z,5.48
2022-10-19T19:56:10.755Z,5.37
2022-10-19T19:58:37.823Z,5.55
2022-10-19T20:01:13.575Z,5.60
2022-10-19T20:03:41.752Z,5.46
2022-10-19T20:06:09.047Z,5.41
2022-10-19T20:08:36.851Z,5.42
2022-10-19T20:11:06.553Z,5.40
2022-10-19T20:13:33.966Z,5.38
2022-10-19T20:16:07.925Z,5.34
2022-10-19T20:18:34.998Z,5.33
2022-10-19T20:21:02.907Z,5.30
2022-10-19T20:23:29.833Z,5.25
2022-10-19T20:25:56.846Z,5.25
2022-10-19T20:28:24.780Z,5.21
2022-10-19T20:31:02.600Z,5.18
2022-10-19T20:33:31.496Z,5.20
2022-10-19T20:36:13.097Z,5.20
2022-10-19T20:38:44.820Z,5.11
2022-10-19T20:41:11.511Z,5.03
2022-10-19T20:43:38.449Z,5.03
2022-10-19T20:46:13.281Z,4.91
2022-10-19T20:48:40.623Z,4.87
2022-10-19T20:51:17.362Z,4.81
2022-10-19T20:53:46.379Z,4.79
2022-10-19T20:56:15.667Z,4.79
2022-10-19T20:58:43.678Z,4.75
2022-10-19T21:01:12.105Z,4.74
2022-10-19T21:03:39.767Z,4.69
2022-10-19T21:06:08.659Z,4.66
2022-10-19T21:08:36.380Z,4.66
2022-10-19T21:11:16.797Z,4.58
2022-10-19T21:13:46.331Z,4.56
2022-10-19T21:16:15.717Z,4.52
2022-10-19T21:18:43.757Z,4.47
2022-10-19T21:21:11.791Z,4.44
2022-10-19T21:23:38.874Z,4.44
2022-10-19T21:26:05.752Z,4.42
2022-10-19T21:28:32.543Z,4.35
2022-10-19T21:31:04.374Z,4.36
2022-10-19T21:33:31.232Z,4.24
2022-10-19T21:36:01.800Z,4.28
2022-10-19T21:38:29.535Z,4.28
2022-10-19T21:41:01.213Z,4.19
2022-10-19T21:43:28.287Z,4.23
2022-10-19T21:45:55.538Z,4.23
2022-10-19T21:48:22.701Z,4.26
2022-10-19T21:50:49.872Z,4.21
2022-10-19T21:53:20.841Z,4.18
2022-10-19T21:55:52.393Z,4.20
2022-10-19T21:58:23.566Z,4.19
2022-10-19T22:00:50.334Z,4.13
2022-10-19T22:03:19.052Z,4.12
2022-10-19T22:05:52.326Z,4.08
2022-10-19T22:08:19.030Z,4.08
2022-10-19T22:10:45.744Z,4.07
2022-10-19T22:13:12.541Z,4.07
2022-10-19T22:15:40.591Z,4.10
2022-10-19T22:18:07.935Z,4.05
2022-10-19T22:20:39.489Z,4.16
2022-10-19T22:23:07.680Z,4.10
2022-10-19T22:25:35.376Z,4.07
2022-10-19T22:28:02.189Z,4.06
2022-10-19T22:30:29.000Z,4.09
2022-10-19T22:32:55.980Z,4.08
2022-10-19T22:35:22.847Z,4.04
2022-10-19T22:37:49.549Z,4.02
2022-10-19T22:40:16.307Z,3.98
2022-10-19T22:42:42.917Z,3.99
2022-10-19T22:45:09.633Z,4.04
2022-10-19T22:47:36.444Z,3.97
2022-10-19T22:50:03.733Z,4.02
2022-10-19T22:52:30.642Z,4.01
2022-10-19T22:54:57.364Z,4.08
2022-10-19T22:57:24.057Z,4.05
2022-10-19T22:59:50.776Z,4.06
2022-10-19T23:02:17.391Z,4.06
2022-10-19T23:04:44.028Z,4.05
2022-10-19T23:09:38.970Z,4.00
2022-10-19T23:12:05.653Z,3.90
2022-10-19T23:14:32.364Z,3.93
2022-10-19T23:16:59.144Z,4.01
2022-10-19T23:19:25.957Z,3.97
2022-10-19T23:21:52.629Z,3.97
2022-10-19T23:24:19.360Z,3.87
2022-10-19T23:26:46.023Z,3.89
2022-10-19T23:29:12.676Z,3.84
2022-10-19T23:31:39.311Z,3.83
2022-10-19T23:34:05.968Z,3.82
2022-10-19T23:36:32.602Z,3.77
2022-10-19T23:38:59.290Z,3.74
2022-10-19T23:41:26.513Z,3.71
2022-10-19T23:43:53.159Z,3.67
2022-10-19T23:46:19.970Z,3.62
2022-10-19T23:48:46.748Z,3.68
2022-10-19T23:51:16.736Z,3.58
2022-10-19T23:53:46.069Z,3.56
2022-10-19T23:56:16.137Z,3.54
2022-10-19T23:58:43.285Z,3.48
